Terminal Aerodrome Forecast
Issued by NWS

Current Version | Previous Version | Text Only | Print | Product List | Glossary On
Versions: 1 2 3 4 5 6 7 8 9 10 11 12 13 14 15 16 17 18 19 20 21 22 23 24 25 26
000
FTUS44 KLIX 271700 RRA
TAFHUM
TAF
KHUM 271740Z 2718/2818 17008KT 4SM SHRA BR OVC015
      TEMPO 2718/2722 1SM +SHRA BR BKN004
     FM280000 18008KT 1SM +SHRA BR OVC007
     FM280600 21008KT 3SM +SHRA BR OVC007=

USA.gov is the U.S. government's official web portal to all federal, state and local government web resources and services.